sensor_id;sensor_type;location;lat;lon;timestamp;P1;durP1;ratioP1;P2;durP2;ratioP2
4933;SDS011;2482;49.154;8.254;2023-08-20T00:01:23;8.37;;;7.33;;
4933;SDS011;2482;49.154;8.254;2023-08-20T00:03:54;9.10;;;7.43;;
4933;SDS011;2482;49.154;8.254;2023-08-20T00:06:22;10.60;;;7.53;;
4933;SDS011;2482;49.154;8.254;2023-08-20T00:08:50;8.33;;;7.00;;
4933;SDS011;2482;49.154;8.254;2023-08-20T00:11:17;9.30;;;6.70;;
4933;SDS011;2482;49.154;8.254;2023-08-20T00:13:44;8.60;;;7.37;;
4933;SDS011;2482;49.154;8.254;2023-08-20T00:16:11;8.93;;;8.03;;
4933;SDS011;2482;49.154;8.254;2023-08-20T00:18:39;13.10;;;8.23;;
4933;SDS011;2482;49.154;8.254;2023-08-20T00:21:06;9.00;;;7.07;;
4933;SDS011;2482;49.154;8.254;2023-08-20T00:23:35;13.30;;;8.30;;
4933;SDS011;2482;49.154;8.254;2023-08-20T00:26:03;9.93;;;7.70;;
4933;SDS011;2482;49.154;8.254;2023-08-20T00:28:30;8.50;;;7.37;;
4933;SDS011;2482;49.154;8.254;2023-08-20T00:31:00;9.80;;;7.27;;
4933;SDS011;2482;49.154;8.254;2023-08-20T00:33:27;8.60;;;7.53;;
4933;SDS011;2482;49.154;8.254;2023-08-20T00:35:55;9.73;;;7.47;;
4933;SDS011;2482;49.154;8.254;2023-08-20T00:38:22;8.20;;;7.17;;
4933;SDS011;2482;49.154;8.254;2023-08-20T00:40:49;7.10;;;6.50;;
4933;SDS011;2482;49.154;8.254;2023-08-20T00:43:16;11.70;;;7.70;;
4933;SDS011;2482;49.154;8.254;2023-08-20T00:45:43;9.00;;;7.50;;
4933;SDS011;2482;49.154;8.254;2023-08-20T00:48:10;7.20;;;6.50;;
4933;SDS011;2482;49.154;8.254;2023-08-20T00:50:38;8.60;;;7.30;;
4933;SDS011;2482;49.154;8.254;2023-08-20T00:53:07;9.90;;;7.43;;
4933;SDS011;2482;49.154;8.254;2023-08-20T00:55:37;10.23;;;7.73;;
4933;SDS011;2482;49.154;8.254;2023-08-20T00:58:04;9.73;;;7.57;;
4933;SDS011;2482;49.154;8.254;2023-08-20T01:00:32;9.70;;;8.00;;
4933;SDS011;2482;49.154;8.254;2023-08-20T01:02:59;11.60;;;7.80;;
4933;SDS011;2482;49.154;8.254;2023-08-20T01:05:26;9.57;;;8.60;;
4933;SDS011;2482;49.154;8.254;2023-08-20T01:08:05;11.80;;;8.50;;
4933;SDS011;2482;49.154;8.254;2023-08-20T01:10:53;8.10;;;7.40;;
4933;SDS011;2482;49.154;8.254;2023-08-20T01:13:32;8.80;;;8.00;;
4933;SDS011;2482;49.154;8.254;2023-08-20T01:15:59;7.93;;;6.80;;
4933;SDS011;2482;49.154;8.254;2023-08-20T01:18:26;8.80;;;7.83;;
4933;SDS011;2482;49.154;8.254;2023-08-20T01:20:58;11.17;;;9.10;;
4933;SDS011;2482;49.154;8.254;2023-08-20T01:23:36;10.13;;;9.20;;
4933;SDS011;2482;49.154;8.254;2023-08-20T01:29:23;7.40;;;6.70;;
4933;SDS011;2482;49.154;8.254;2023-08-20T01:31:51;8.47;;;7.60;;
4933;SDS011;2482;49.154;8.254;2023-08-20T01:34:20;17.30;;;8.03;;
4933;SDS011;2482;49.154;8.254;2023-08-20T01:36:48;9.20;;;7.63;;
4933;SDS011;2482;49.154;8.254;2023-08-20T01:39:15;8.70;;;7.33;;
4933;SDS011;2482;49.154;8.254;2023-08-20T01:41:43;8.80;;;7.33;;
4933;SDS011;2482;49.154;8.254;2023-08-20T01:44:10;9.23;;;8.17;;
4933;SDS011;2482;49.154;8.254;2023-08-20T01:46:37;9.73;;;7.67;;
4933;SDS011;2482;49.154;8.254;2023-08-20T01:49:04;11.70;;;7.00;;
4933;SDS011;2482;49.154;8.254;2023-08-20T01:51:31;13.63;;;8.13;;
4933;SDS011;2482;49.154;8.254;2023-08-20T01:53:58;9.17;;;7.70;;
4933;SDS011;2482;49.154;8.254;2023-08-20T01:56:25;11.87;;;7.47;;
4933;SDS011;2482;49.154;8.254;2023-08-20T01:58:52;8.03;;;7.20;;
4933;SDS011;2482;49.154;8.254;2023-08-20T02:01:19;9.53;;;7.67;;
4933;SDS011;2482;49.154;8.254;2023-08-20T02:03:46;7.97;;;7.17;;
4933;SDS011;2482;49.154;8.254;2023-08-20T02:06:13;11.80;;;8.33;;
4933;SDS011;2482;49.154;8.254;2023-08-20T02:08:40;10.27;;;8.37;;
4933;SDS011;2482;49.154;8.254;2023-08-20T02:11:07;12.87;;;8.77;;
4933;SDS011;2482;49.154;8.254;2023-08-20T02:13:34;11.80;;;8.90;;
4933;SDS011;2482;49.154;8.254;2023-08-20T02:16:02;9.17;;;7.87;;
4933;SDS011;2482;49.154;8.254;2023-08-20T02:18:30;8.40;;;7.60;;
4933;SDS011;2482;49.154;8.254;2023-08-20T02:20:57;9.60;;;7.70;;
4933;SDS011;2482;49.154;8.254;2023-08-20T02:23:24;12.97;;;8.10;;
4933;SDS011;2482;49.154;8.254;2023-08-20T02:25:52;8.97;;;7.60;;
4933;SDS011;2482;49.154;8.254;2023-08-20T02:28:19;8.33;;;7.40;;
4933;SDS011;2482;49.154;8.254;2023-08-20T02:30:46;7.97;;;7.27;;
4933;SDS011;2482;49.154;8.254;2023-08-20T02:33:13;10.60;;;8.17;;
4933;SDS011;2482;49.154;8.254;2023-08-20T02:35:41;8.47;;;7.60;;
4933;SDS011;2482;49.154;8.254;2023-08-20T02:38:08;8.73;;;7.83;;
4933;SDS011;2482;49.154;8.254;2023-08-20T02:40:42;9.33;;;7.97;;
4933;SDS011;2482;49.154;8.254;2023-08-20T02:43:09;9.60;;;8.70;;
4933;SDS011;2482;49.154;8.254;2023-08-20T02:45:41;8.47;;;7.67;;
4933;SDS011;2482;49.154;8.254;2023-08-20T02:48:09;10.20;;;9.20;;
4933;SDS011;2482;49.154;8.254;2023-08-20T02:50:36;11.90;;;10.80;;
4933;SDS011;2482;49.154;8.254;2023-08-20T02:53:03;11.83;;;10.50;;
4933;SDS011;2482;49.154;8.254;2023-08-20T02:55:31;10.80;;;9.70;;
4933;SDS011;2482;49.154;8.254;2023-08-20T02:57:59;10.33;;;9.03;;
4933;SDS011;2482;49.154;8.254;2023-08-20T03:00:26;9.50;;;8.60;;
4933;SDS011;2482;49.154;8.254;2023-08-20T03:02:54;9.00;;;8.10;;
4933;SDS011;2482;49.154;8.254;2023-08-20T03:05:22;10.43;;;9.10;;
4933;SDS011;2482;49.154;8.254;2023-08-20T03:07:49;11.33;;;9.63;;
4933;SDS011;2482;49.154;8.254;2023-08-20T03:10:16;18.30;;;11.57;;
4933;SDS011;2482;49.154;8.254;2023-08-20T03:12:43;10.53;;;9.53;;
4933;SDS011;2482;49.154;8.254;2023-08-20T03:15:10;11.47;;;9.70;;
4933;SDS011;2482;49.154;8.254;2023-08-20T03:17:38;12.43;;;10.10;;
4933;SDS011;2482;49.154;8.254;2023-08-20T03:20:05;10.10;;;9.10;;
4933;SDS011;2482;49.154;8.254;2023-08-20T03:22:35;14.30;;;10.67;;
4933;SDS011;2482;49.154;8.254;2023-08-20T03:25:04;11.60;;;9.27;;
4933;SDS011;2482;49.154;8.254;2023-08-20T03:27:32;12.10;;;9.00;;
4933;SDS011;2482;49.154;8.254;2023-08-20T03:30:00;10.93;;;9.00;;
4933;SDS011;2482;49.154;8.254;2023-08-20T03:32:28;11.53;;;10.13;;
4933;SDS011;2482;49.154;8.254;2023-08-20T03:34:54;13.80;;;10.17;;
4933;SDS011;2482;49.154;8.254;2023-08-20T03:37:22;13.20;;;10.27;;
4933;SDS011;2482;49.154;8.254;2023-08-20T03:39:49;11.67;;;9.50;;
4933;SDS011;2482;49.154;8.254;2023-08-20T03:42:16;10.57;;;9.57;;
4933;SDS011;2482;49.154;8.254;2023-08-20T03:44:43;10.73;;;9.63;;
4933;SDS011;2482;49.154;8.254;2023-08-20T03:47:10;11.30;;;10.17;;
4933;SDS011;2482;49.154;8.254;2023-08-20T03:49:37;10.20;;;9.20;;
4933;SDS011;2482;49.154;8.254;2023-08-20T03:52:04;11.20;;;9.40;;
4933;SDS011;2482;49.154;8.254;2023-08-20T03:54:33;10.10;;;9.20;;
4933;SDS011;2482;49.154;8.254;2023-08-20T03:57:00;8.90;;;8.03;;
4933;SDS011;2482;49.154;8.254;2023-08-20T03:59:27;15.30;;;9.17;;
4933;SDS011;2482;49.154;8.254;2023-08-20T04:01:56;9.80;;;8.80;;
4933;SDS011;2482;49.154;8.254;2023-08-20T04:04:23;11.67;;;9.63;;
4933;SDS011;2482;49.154;8.254;2023-08-20T04:06:50;11.83;;;10.53;;
4933;SDS011;2482;49.154;8.254;2023-08-20T04:09:17;12.33;;;10.23;;
4933;SDS011;2482;49.154;8.254;2023-08-20T04:11:45;10.20;;;8.60;;
4933;SDS011;2482;49.154;8.254;2023-08-20T04:14:11;9.63;;;8.50;;
4933;SDS011;2482;49.154;8.254;2023-08-20T04:16:38;10.43;;;9.07;;
4933;SDS011;2482;49.154;8.254;2023-08-20T04:19:05;10.30;;;8.50;;
4933;SDS011;2482;49.154;8.254;2023-08-20T04:21:32;9.30;;;8.30;;
4933;SDS011;2482;49.154;8.254;2023-08-20T04:23:59;8.90;;;8.00;;
4933;SDS011;2482;49.154;8.254;2023-08-20T04:26:26;10.27;;;9.07;;
4933;SDS011;2482;49.154;8.254;2023-08-20T04:28:53;14.43;;;10.40;;
4933;SDS011;2482;49.154;8.254;2023-08-20T04:31:20;10.83;;;9.10;;
4933;SDS011;2482;49.154;8.254;2023-08-20T04:33:47;10.10;;;9.10;;
4933;SDS011;2482;49.154;8.254;2023-08-20T04:36:14;8.87;;;8.07;;
4933;SDS011;2482;49.154;8.254;2023-08-20T04:38:41;9.37;;;8.47;;
4933;SDS011;2482;49.154;8.254;2023-08-20T04:41:08;9.53;;;8.63;;
4933;SDS011;2482;49.154;8.254;2023-08-20T04:43:35;10.27;;;9.07;;
4933;SDS011;2482;49.154;8.254;2023-08-20T04:46:02;17.90;;;9.10;;
4933;SDS011;2482;49.154;8.254;2023-08-20T04:48:29;9.50;;;8.50;;
4933;SDS011;2482;49.154;8.254;2023-08-20T04:50:56;10.07;;;9.17;;
4933;SDS011;2482;49.154;8.254;2023-08-20T04:53:25;8.33;;;7.53;;
4933;SDS011;2482;49.154;8.254;2023-08-20T04:55:52;8.33;;;7.53;;
4933;SDS011;2482;49.154;8.254;2023-08-20T04:58:18;9.57;;;8.60;;
4933;SDS011;2482;49.154;8.254;2023-08-20T05:00:46;14.63;;;8.67;;
4933;SDS011;2482;49.154;8.254;2023-08-20T05:03:13;9.07;;;8.17;;
4933;SDS011;2482;49.154;8.254;2023-08-20T05:05:40;9.53;;;8.30;;
4933;SDS011;2482;49.154;8.254;2023-08-20T05:08:07;9.27;;;8.27;;
4933;SDS011;2482;49.154;8.254;2023-08-20T05:10:35;8.10;;;7.40;;
4933;SDS011;2482;49.154;8.254;2023-08-20T05:13:03;9.00;;;8.10;;
4933;SDS011;2482;49.154;8.254;2023-08-20T05:15:31;9.03;;;7.63;;
4933;SDS011;2482;49.154;8.254;2023-08-20T05:17:58;10.03;;;8.20;;
4933;SDS011;2482;49.154;8.254;2023-08-20T05:20:25;10.77;;;7.83;;
4933;SDS011;2482;49.154;8.254;2023-08-20T05:22:52;9.07;;;8.17;;
4933;SDS011;2482;49.154;8.254;2023-08-20T05:25:19;9.80;;;8.80;;
4933;SDS011;2482;49.154;8.254;2023-08-20T05:27:46;12.10;;;8.70;;
4933;SDS011;2482;49.154;8.254;2023-08-20T05:30:13;9.10;;;8.03;;
4933;SDS011;2482;49.154;8.254;2023-08-20T05:32:40;11.17;;;8.10;;
4933;SDS011;2482;49.154;8.254;2023-08-20T05:35:07;8.30;;;7.47;;
4933;SDS011;2482;49.154;8.254;2023-08-20T05:37:34;10.70;;;8.70;;
4933;SDS011;2482;49.154;8.254;2023-08-20T05:40:01;10.67;;;8.23;;
4933;SDS011;2482;49.154;8.254;2023-08-20T05:42:29;9.63;;;7.57;;
4933;SDS011;2482;49.154;8.254;2023-08-20T05:44:56;9.20;;;7.87;;
4933;SDS011;2482;49.154;8.254;2023-08-20T05:47:23;9.87;;;7.53;;
4933;SDS011;2482;49.154;8.254;2023-08-20T05:49:50;9.23;;;7.60;;
4933;SDS011;2482;49.154;8.254;2023-08-20T05:52:17;12.63;;;7.80;;
4933;SDS011;2482;49.154;8.254;2023-08-20T05:54:44;9.83;;;7.90;;
4933;SDS011;2482;49.154;8.254;2023-08-20T05:57:11;8.23;;;7.43;;
4933;SDS011;2482;49.154;8.254;2023-08-20T05:59:38;11.40;;;7.03;;
4933;SDS011;2482;49.154;8.254;2023-08-20T06:02:05;7.80;;;7.00;;
4933;SDS011;2482;49.154;8.254;2023-08-20T06:04:32;11.20;;;6.77;;
4933;SDS011;2482;49.154;8.254;2023-08-20T06:06:59;11.33;;;7.90;;
4933;SDS011;2482;49.154;8.254;2023-08-20T06:09:26;13.43;;;7.50;;
4933;SDS011;2482;49.154;8.254;2023-08-20T06:11:53;9.53;;;7.17;;
4933;SDS011;2482;49.154;8.254;2023-08-20T06:14:20;8.20;;;7.40;;
4933;SDS011;2482;49.154;8.254;2023-08-20T06:16:47;12.50;;;7.20;;
4933;SDS011;2482;49.154;8.254;2023-08-20T06:19:14;9.00;;;7.53;;
4933;SDS011;2482;49.154;8.254;2023-08-20T06:21:41;7.97;;;7.17;;
4933;SDS011;2482;49.154;8.254;2023-08-20T06:24:08;11.80;;;7.67;;
4933;SDS011;2482;49.154;8.254;2023-08-20T06:26:36;8.40;;;7.10;;
4933;SDS011;2482;49.154;8.254;2023-08-20T06:29:03;9.87;;;7.90;;
4933;SDS011;2482;49.154;8.254;2023-08-20T06:31:30;9.03;;;7.93;;
4933;SDS011;2482;49.154;8.254;2023-08-20T06:33:57;10.43;;;8.67;;
4933;SDS011;2482;49.154;8.254;2023-08-20T06:36:24;8.03;;;7.33;;
4933;SDS011;2482;49.154;8.254;2023-08-20T06:38:51;11.93;;;6.90;;
4933;SDS011;2482;49.154;8.254;2023-08-20T06:41:18;8.83;;;7.17;;
4933;SDS011;2482;49.154;8.254;2023-08-20T06:43:45;9.87;;;7.03;;
4933;SDS011;2482;49.154;8.254;2023-08-20T06:46:12;11.63;;;7.03;;
4933;SDS011;2482;49.154;8.254;2023-08-20T06:48:39;10.57;;;6.70;;
4933;SDS011;2482;49.154;8.254;2023-08-20T06:51:13;16.80;;;7.40;;
4933;SDS011;2482;49.154;8.254;2023-08-20T06:53:41;14.30;;;6.60;;
4933;SDS011;2482;49.154;8.254;2023-08-20T06:56:09;9.10;;;6.37;;
4933;SDS011;2482;49.154;8.254;2023-08-20T06:58:38;8.03;;;6.50;;
4933;SDS011;2482;49.154;8.254;2023-08-20T07:01:07;12.17;;;6.60;;
4933;SDS011;2482;49.154;8.254;2023-08-20T07:03:42;7.90;;;6.30;;
4933;SDS011;2482;49.154;8.254;2023-08-20T07:06:10;9.77;;;6.47;;
4933;SDS011;2482;49.154;8.254;2023-08-20T07:08:40;9.63;;;6.90;;
4933;SDS011;2482;49.154;8.254;2023-08-20T07:11:08;10.50;;;7.17;;
4933;SDS011;2482;49.154;8.254;2023-08-20T07:13:35;9.70;;;6.90;;
4933;SDS011;2482;49.154;8.254;2023-08-20T07:16:02;8.37;;;6.30;;
4933;SDS011;2482;49.154;8.254;2023-08-20T07:18:29;12.53;;;7.50;;
4933;SDS011;2482;49.154;8.254;2023-08-20T07:20:58;8.87;;;6.27;;
4933;SDS011;2482;49.154;8.254;2023-08-20T07:23:25;8.80;;;6.33;;
4933;SDS011;2482;49.154;8.254;2023-08-20T07:25:59;8.70;;;6.20;;
4933;SDS011;2482;49.154;8.254;2023-08-20T07:28:32;7.87;;;6.10;;
4933;SDS011;2482;49.154;8.254;2023-08-20T07:31:17;12.53;;;6.33;;
4933;SDS011;2482;49.154;8.254;2023-08-20T07:33:48;8.80;;;6.63;;
4933;SDS011;2482;49.154;8.254;2023-08-20T07:36:16;9.50;;;6.00;;
4933;SDS011;2482;49.154;8.254;2023-08-20T07:38:45;10.23;;;6.80;;
4933;SDS011;2482;49.154;8.254;2023-08-20T07:41:12;9.23;;;6.10;;
4933;SDS011;2482;49.154;8.254;2023-08-20T07:43:39;7.13;;;6.10;;
4933;SDS011;2482;49.154;8.254;2023-08-20T07:46:08;10.00;;;6.30;;
4933;SDS011;2482;49.154;8.254;2023-08-20T07:48:35;10.57;;;6.50;;
4933;SDS011;2482;49.154;8.254;2023-08-20T07:51:03;13.03;;;6.00;;
4933;SDS011;2482;49.154;8.254;2023-08-20T07:53:30;9.53;;;6.87;;
4933;SDS011;2482;49.154;8.254;2023-08-20T07:55:58;8.57;;;6.40;;
4933;SDS011;2482;49.154;8.254;2023-08-20T07:58:27;9.33;;;6.67;;
4933;SDS011;2482;49.154;8.254;2023-08-20T08:00:56;10.30;;;6.53;;
4933;SDS011;2482;49.154;8.254;2023-08-20T08:03:27;10.00;;;6.77;;
4933;SDS011;2482;49.154;8.254;2023-08-20T08:05:54;9.97;;;6.07;;
4933;SDS011;2482;49.154;8.254;2023-08-20T08:08:21;6.83;;;6.10;;
4933;SDS011;2482;49.154;8.254;2023-08-20T08:10:49;6.40;;;5.80;;
4933;SDS011;2482;49.154;8.254;2023-08-20T08:13:18;7.43;;;5.80;;
4933;SDS011;2482;49.154;8.254;2023-08-20T08:15:48;9.13;;;6.50;;
4933;SDS011;2482;49.154;8.254;2023-08-20T08:18:16;5.80;;;4.97;;
4933;SDS011;2482;49.154;8.254;2023-08-20T08:20:44;8.17;;;5.30;;
4933;SDS011;2482;49.154;8.254;2023-08-20T08:23:11;6.50;;;5.33;;
4933;SDS011;2482;49.154;8.254;2023-08-20T08:25:38;7.23;;;5.43;;
4933;SDS011;2482;49.154;8.254;2023-08-20T08:28:06;7.00;;;6.30;;
4933;SDS011;2482;49.154;8.254;2023-08-20T08:30:33;6.90;;;5.30;;
4933;SDS011;2482;49.154;8.254;2023-08-20T08:33:00;9.43;;;5.60;;
4933;SDS011;2482;49.154;8.254;2023-08-20T08:35:27;5.97;;;4.90;;
4933;SDS011;2482;49.154;8.254;2023-08-20T08:37:55;11.53;;;5.50;;
4933;SDS011;2482;49.154;8.254;2023-08-20T08:40:25;5.73;;;5.13;;
4933;SDS011;2482;49.154;8.254;2023-08-20T08:42:56;8.33;;;5.70;;
4933;SDS011;2482;49.154;8.254;2023-08-20T08:45:23;9.13;;;5.47;;
4933;SDS011;2482;49.154;8.254;2023-08-20T08:47:52;7.60;;;5.87;;
4933;SDS011;2482;49.154;8.254;2023-08-20T08:50:21;5.70;;;4.80;;
4933;SDS011;2482;49.154;8.254;2023-08-20T08:52:50;9.30;;;4.67;;
4933;SDS011;2482;49.154;8.254;2023-08-20T08:55:19;5.93;;;4.70;;
4933;SDS011;2482;49.154;8.254;2023-08-20T08:57:46;6.10;;;5.50;;
4933;SDS011;2482;49.154;8.254;2023-08-20T09:00:13;4.73;;;4.30;;
4933;SDS011;2482;49.154;8.254;2023-08-20T09:02:41;6.10;;;5.03;;
4933;SDS011;2482;49.154;8.254;2023-08-20T09:05:08;7.47;;;4.90;;
4933;SDS011;2482;49.154;8.254;2023-08-20T09:07:35;7.37;;;4.97;;
4933;SDS011;2482;49.154;8.254;2023-08-20T09:10:10;6.73;;;4.70;;
4933;SDS011;2482;49.154;8.254;2023-08-20T09:12:37;6.83;;;4.77;;
4933;SDS011;2482;49.154;8.254;2023-08-20T09:15:09;5.33;;;4.83;;
4933;SDS011;2482;49.154;8.254;2023-08-20T09:17:39;6.33;;;4.57;;
4933;SDS011;2482;49.154;8.254;2023-08-20T09:20:10;4.67;;;4.17;;
4933;SDS011;2482;49.154;8.254;2023-08-20T09:22:37;4.90;;;4.40;;
4933;SDS011;2482;49.154;8.254;2023-08-20T09:25:04;5.77;;;4.77;;
4933;SDS011;2482;49.154;8.254;2023-08-20T09:27:38;5.97;;;4.80;;
4933;SDS011;2482;49.154;8.254;2023-08-20T09:30:08;6.10;;;4.70;;
4933;SDS011;2482;49.154;8.254;2023-08-20T09:32:36;11.67;;;4.60;;
4933;SDS011;2482;49.154;8.254;2023-08-20T09:35:04;7.47;;;4.80;;
4933;SDS011;2482;49.154;8.254;2023-08-20T09:37:32;5.33;;;4.10;;
4933;SDS011;2482;49.154;8.254;2023-08-20T09:40:00;5.67;;;4.03;;
4933;SDS011;2482;49.154;8.254;2023-08-20T09:42:27;5.17;;;4.50;;
4933;SDS011;2482;49.154;8.254;2023-08-20T09:44:56;4.60;;;4.20;;
4933;SDS011;2482;49.154;8.254;2023-08-20T09:47:24;11.40;;;4.20;;
4933;SDS011;2482;49.154;8.254;2023-08-20T09:49:54;8.10;;;4.47;;
4933;SDS011;2482;49.154;8.254;2023-08-20T09:52:30;6.73;;;4.27;;
4933;SDS011;2482;49.154;8.254;2023-08-20T09:55:08;5.60;;;4.07;;
4933;SDS011;2482;49.154;8.254;2023-08-20T09:57:38;5.70;;;3.83;;
4933;SDS011;2482;49.154;8.254;2023-08-20T10:00:10;5.17;;;4.20;;
4933;SDS011;2482;49.154;8.254;2023-08-20T10:02:39;6.17;;;4.00;;
4933;SDS011;2482;49.154;8.254;2023-08-20T10:05:08;5.20;;;4.10;;
4933;SDS011;2482;49.154;8.254;2023-08-20T10:07:37;6.07;;;3.60;;
4933;SDS011;2482;49.154;8.254;2023-08-20T10:10:05;5.13;;;4.10;;
4933;SDS011;2482;49.154;8.254;2023-08-20T10:12:36;7.17;;;4.73;;
4933;SDS011;2482;49.154;8.254;2023-08-20T10:15:07;6.90;;;4.20;;
4933;SDS011;2482;49.154;8.254;2023-08-20T10:17:36;3.70;;;3.30;;
4933;SDS011;2482;49.154;8.254;2023-08-20T10:20:07;4.53;;;3.60;;
4933;SDS011;2482;49.154;8.254;2023-08-20T10:22:40;5.73;;;3.80;;
4933;SDS011;2482;49.154;8.254;2023-08-20T10:25:28;4.67;;;3.40;;
4933;SDS011;2482;49.154;8.254;2023-08-20T10:31:07;4.80;;;3.80;;
4933;SDS011;2482;49.154;8.254;2023-08-20T10:33:47;5.80;;;3.93;;
4933;SDS011;2482;49.154;8.254;2023-08-20T10:36:18;3.63;;;3.33;;
4933;SDS011;2482;49.154;8.254;2023-08-20T10:38:49;8.50;;;4.23;;
4933;SDS011;2482;49.154;8.254;2023-08-20T10:41:17;4.63;;;3.70;;
4933;SDS011;2482;49.154;8.254;2023-08-20T10:43:52;9.00;;;3.70;;
4933;SDS011;2482;49.154;8.254;2023-08-20T10:46:23;6.67;;;4.23;;
4933;SDS011;2482;49.154;8.254;2023-08-20T10:48:59;7.20;;;3.53;;
4933;SDS011;2482;49.154;8.254;2023-08-20T10:51:31;3.43;;;2.83;;
4933;SDS011;2482;49.154;8.254;2023-08-20T10:56:47;6.33;;;3.80;;
4933;SDS011;2482;49.154;8.254;2023-08-20T10:59:28;4.40;;;3.97;;
4933;SDS011;2482;49.154;8.254;2023-08-20T11:01:58;6.00;;;3.60;;
4933;SDS011;2482;49.154;8.254;2023-08-20T11:04:30;4.93;;;3.80;;
4933;SDS011;2482;49.154;8.254;2023-08-20T11:07:01;5.03;;;3.70;;
4933;SDS011;2482;49.154;8.254;2023-08-20T11:09:29;3.87;;;3.47;;
4933;SDS011;2482;49.154;8.254;2023-08-20T11:11:58;5.10;;;3.57;;
4933;SDS011;2482;49.154;8.254;2023-08-20T11:14:25;4.00;;;3.70;;
4933;SDS011;2482;49.154;8.254;2023-08-20T11:16:52;7.07;;;4.03;;
4933;SDS011;2482;49.154;8.254;2023-08-20T11:19:20;4.97;;;3.57;;
4933;SDS011;2482;49.154;8.254;2023-08-20T11:21:49;6.47;;;3.57;;
4933;SDS011;2482;49.154;8.254;2023-08-20T11:24:17;3.80;;;3.50;;
4933;SDS011;2482;49.154;8.254;2023-08-20T11:26:46;4.17;;;3.10;;
4933;SDS011;2482;49.154;8.254;2023-08-20T11:29:14;3.93;;;3.27;;
4933;SDS011;2482;49.154;8.254;2023-08-20T11:31:50;3.30;;;3.00;;
4933;SDS011;2482;49.154;8.254;2023-08-20T11:34:18;7.50;;;3.20;;
4933;SDS011;2482;49.154;8.254;2023-08-20T11:36:46;4.13;;;3.10;;
4933;SDS011;2482;49.154;8.254;2023-08-20T11:39:15;3.47;;;3.17;;
4933;SDS011;2482;49.154;8.254;2023-08-20T11:41:43;6.70;;;3.70;;
4933;SDS011;2482;49.154;8.254;2023-08-20T11:44:11;6.30;;;2.90;;
4933;SDS011;2482;49.154;8.254;2023-08-20T11:46:47;5.13;;;3.27;;
4933;SDS011;2482;49.154;8.254;2023-08-20T11:49:15;3.83;;;3.00;;
4933;SDS011;2482;49.154;8.254;2023-08-20T11:51:43;5.47;;;3.00;;
4933;SDS011;2482;49.154;8.254;2023-08-20T11:54:14;3.83;;;3.20;;
4933;SDS011;2482;49.154;8.254;2023-08-20T11:56:47;4.97;;;3.20;;
4933;SDS011;2482;49.154;8.254;2023-08-20T11:59:17;5.40;;;2.83;;
4933;SDS011;2482;49.154;8.254;2023-08-20T12:01:50;3.53;;;3.00;;
4933;SDS011;2482;49.154;8.254;2023-08-20T12:04:18;5.23;;;2.70;;
4933;SDS011;2482;49.154;8.254;2023-08-20T12:07:05;6.93;;;3.00;;
4933;SDS011;2482;49.154;8.254;2023-08-20T12:09:35;5.47;;;3.27;;
4933;SDS011;2482;49.154;8.254;2023-08-20T12:12:05;4.33;;;3.00;;
4933;SDS011;2482;49.154;8.254;2023-08-20T12:14:33;7.40;;;3.33;;
4933;SDS011;2482;49.154;8.254;2023-08-20T12:17:01;6.33;;;3.10;;
4933;SDS011;2482;49.154;8.254;2023-08-20T12:19:29;4.50;;;3.17;;
4933;SDS011;2482;49.154;8.254;2023-08-20T12:21:57;6.17;;;2.93;;
4933;SDS011;2482;49.154;8.254;2023-08-20T12:24:24;6.40;;;3.20;;
4933;SDS011;2482;49.154;8.254;2023-08-20T12:26:52;5.30;;;3.13;;
4933;SDS011;2482;49.154;8.254;2023-08-20T12:29:20;3.93;;;3.33;;
4933;SDS011;2482;49.154;8.254;2023-08-20T12:31:47;6.40;;;2.77;;
4933;SDS011;2482;49.154;8.254;2023-08-20T12:34:13;4.60;;;3.10;;
4933;SDS011;2482;49.154;8.254;2023-08-20T12:36:41;5.43;;;3.23;;
4933;SDS011;2482;49.154;8.254;2023-08-20T12:39:07;6.10;;;3.13;;
4933;SDS011;2482;49.154;8.254;2023-08-20T12:41:35;4.00;;;2.73;;
4933;SDS011;2482;49.154;8.254;2023-08-20T12:44:02;6.13;;;2.80;;
4933;SDS011;2482;49.154;8.254;2023-08-20T12:46:30;3.10;;;2.80;;
4933;SDS011;2482;49.154;8.254;2023-08-20T12:48:58;5.67;;;3.17;;
4933;SDS011;2482;49.154;8.254;2023-08-20T12:51:26;6.93;;;3.37;;
4933;SDS011;2482;49.154;8.254;2023-08-20T12:53:53;3.70;;;3.07;;
4933;SDS011;2482;49.154;8.254;2023-08-20T12:56:20;4.10;;;3.10;;
4933;SDS011;2482;49.154;8.254;2023-08-20T12:58:47;3.20;;;2.87;;
4933;SDS011;2482;49.154;8.254;2023-08-20T13:01:14;2.93;;;2.60;;
4933;SDS011;2482;49.154;8.254;2023-08-20T13:03:41;4.50;;;2.70;;
4933;SDS011;2482;49.154;8.254;2023-08-20T13:06:09;4.57;;;3.37;;
4933;SDS011;2482;49.154;8.254;2023-08-20T13:08:37;4.10;;;3.43;;
4933;SDS011;2482;49.154;8.254;2023-08-20T13:11:04;7.87;;;3.00;;
4933;SDS011;2482;49.154;8.254;2023-08-20T13:13:33;6.23;;;2.87;;
4933;SDS011;2482;49.154;8.254;2023-08-20T13:16:01;5.43;;;3.23;;
4933;SDS011;2482;49.154;8.254;2023-08-20T13:18:29;4.90;;;3.80;;
4933;SDS011;2482;49.154;8.254;2023-08-20T13:20:57;7.43;;;3.57;;
4933;SDS011;2482;49.154;8.254;2023-08-20T13:23:24;4.10;;;2.97;;
4933;SDS011;2482;49.154;8.254;2023-08-20T13:25:51;7.10;;;3.43;;
4933;SDS011;2482;49.154;8.254;2023-08-20T13:28:18;5.80;;;3.47;;
4933;SDS011;2482;49.154;8.254;2023-08-20T13:30:45;5.70;;;3.70;;
4933;SDS011;2482;49.154;8.254;2023-08-20T13:33:12;4.63;;;2.70;;
4933;SDS011;2482;49.154;8.254;2023-08-20T13:35:41;5.90;;;3.77;;
4933;SDS011;2482;49.154;8.254;2023-08-20T13:38:08;4.17;;;3.67;;
4933;SDS011;2482;49.154;8.254;2023-08-20T13:40:35;5.80;;;3.70;;
4933;SDS011;2482;49.154;8.254;2023-08-20T13:43:03;3.83;;;3.53;;
4933;SDS011;2482;49.154;8.254;2023-08-20T13:45:31;4.10;;;3.47;;
4933;SDS011;2482;49.154;8.254;2023-08-20T13:47:58;4.10;;;3.53;;
4933;SDS011;2482;49.154;8.254;2023-08-20T13:50:26;4.07;;;3.00;;
4933;SDS011;2482;49.154;8.254;2023-08-20T13:52:53;4.60;;;3.70;;
4933;SDS011;2482;49.154;8.254;2023-08-20T13:55:20;5.93;;;3.47;;
4933;SDS011;2482;49.154;8.254;2023-08-20T13:57:47;5.43;;;3.40;;
4933;SDS011;2482;49.154;8.254;2023-08-20T14:00:14;5.03;;;3.80;;
4933;SDS011;2482;49.154;8.254;2023-08-20T14:02:42;7.50;;;3.83;;
4933;SDS011;2482;49.154;8.254;2023-08-20T14:05:09;9.70;;;3.37;;
4933;SDS011;2482;49.154;8.254;2023-08-20T14:07:36;4.60;;;3.27;;
4933;SDS011;2482;49.154;8.254;2023-08-20T14:10:03;3.60;;;3.30;;
4933;SDS011;2482;49.154;8.254;2023-08-20T14:12:31;5.17;;;3.27;;
4933;SDS011;2482;49.154;8.254;2023-08-20T14:14:59;9.33;;;3.00;;
4933;SDS011;2482;49.154;8.254;2023-08-20T14:17:26;4.90;;;3.27;;
4933;SDS011;2482;49.154;8.254;2023-08-20T14:19:54;4.40;;;3.53;;
4933;SDS011;2482;49.154;8.254;2023-08-20T14:22:22;3.83;;;2.93;;
4933;SDS011;2482;49.154;8.254;2023-08-20T14:24:49;3.83;;;3.00;;
4933;SDS011;2482;49.154;8.254;2023-08-20T14:27:16;6.73;;;3.70;;
4933;SDS011;2482;49.154;8.254;2023-08-20T14:29:43;5.80;;;3.70;;
4933;SDS011;2482;49.154;8.254;2023-08-20T14:32:10;7.67;;;3.50;;
4933;SDS011;2482;49.154;8.254;2023-08-20T14:34:37;3.30;;;3.00;;
4933;SDS011;2482;49.154;8.254;2023-08-20T14:37:04;4.30;;;3.13;;
4933;SDS011;2482;49.154;8.254;2023-08-20T14:39:32;6.60;;;2.97;;
4933;SDS011;2482;49.154;8.254;2023-08-20T14:41:59;5.40;;;3.60;;
4933;SDS011;2482;49.154;8.254;2023-08-20T14:44:27;3.70;;;3.40;;
4933;SDS011;2482;49.154;8.254;2023-08-20T14:46:54;3.37;;;3.07;;
4933;SDS011;2482;49.154;8.254;2023-08-20T14:49:21;8.47;;;2.90;;
4933;SDS011;2482;49.154;8.254;2023-08-20T14:51:48;10.03;;;2.73;;
4933;SDS011;2482;49.154;8.254;2023-08-20T14:54:15;5.10;;;3.10;;
4933;SDS011;2482;49.154;8.254;2023-08-20T14:56:42;5.83;;;3.00;;
4933;SDS011;2482;49.154;8.254;2023-08-20T14:59:10;4.93;;;3.00;;
4933;SDS011;2482;49.154;8.254;2023-08-20T15:01:37;4.63;;;2.80;;
4933;SDS011;2482;49.154;8.254;2023-08-20T15:04:04;4.03;;;2.90;;
4933;SDS011;2482;49.154;8.254;2023-08-20T15:06:33;6.10;;;2.97;;
4933;SDS011;2482;49.154;8.254;2023-08-20T15:09:00;4.00;;;3.07;;
4933;SDS011;2482;49.154;8.254;2023-08-20T15:11:27;4.70;;;3.03;;
4933;SDS011;2482;49.154;8.254;2023-08-20T15:13:54;4.23;;;3.20;;
4933;SDS011;2482;49.154;8.254;2023-08-20T15:16:21;3.93;;;2.90;;
4933;SDS011;2482;49.154;8.254;2023-08-20T15:18:48;7.40;;;3.03;;
4933;SDS011;2482;49.154;8.254;2023-08-20T15:21:15;3.23;;;2.57;;
4933;SDS011;2482;49.154;8.254;2023-08-20T15:23:42;6.10;;;3.43;;
4933;SDS011;2482;49.154;8.254;2023-08-20T15:26:10;7.23;;;3.50;;
4933;SDS011;2482;49.154;8.254;2023-08-20T15:28:37;4.80;;;3.20;;